createdAt,value
2019-02-20T00:00:08.252Z,82.90
2019-02-20T00:02:36.656Z,83.40
2019-02-20T00:05:05.856Z,83.20
2019-02-20T00:07:34.306Z,83.40
2019-02-20T00:10:02.741Z,83.30
2019-02-20T00:12:31.137Z,83.50
2019-02-20T00:17:27.646Z,83.10
2019-02-20T00:19:56.034Z,83.10
2019-02-20T00:22:24.435Z,83.30
2019-02-20T00:24:52.838Z,83.50
2019-02-20T00:27:21.247Z,83.50
2019-02-20T00:29:49.639Z,83.50
2019-02-20T00:34:46.168Z,83.70
2019-02-20T00:39:42.641Z,83.80
2019-02-20T00:44:40.757Z,83.80
2019-02-20T00:47:19.245Z,83.90
2019-02-20T00:49:47.909Z,84.10
2019-02-20T00:52:23.912Z,83.80
2019-02-20T00:54:52.362Z,83.80
2019-02-20T00:57:20.772Z,83.80
2019-02-20T00:59:49.203Z,83.90
2019-02-20T01:02:17.596Z,83.90
2019-02-20T01:04:46.010Z,84.10
2019-02-20T01:07:14.475Z,84.10
2019-02-20T01:09:42.888Z,84.10
2019-02-20T01:12:30.626Z,84.10
2019-02-20T01:14:59.020Z,84.20
2019-02-20T01:19:55.585Z,84.30
2019-02-20T01:22:24.003Z,84.30
2019-02-20T01:24:52.399Z,84.40
2019-02-20T01:27:20.792Z,84.40
2019-02-20T01:29:49.191Z,84.50
2019-02-20T01:32:17.604Z,84.50
2019-02-20T01:37:33.432Z,84.40
2019-02-20T01:40:01.838Z,84.50
2019-02-20T01:44:58.417Z,84.50
2019-02-20T01:47:26.808Z,84.40
2019-02-20T01:49:55.218Z,84.50
2019-02-20T01:54:51.717Z,84.50
2019-02-20T01:57:20.114Z,84.40
2019-02-20T01:59:48.568Z,84.50
2019-02-20T02:02:17.026Z,84.50
2019-02-20T02:04:45.445Z,84.60
2019-02-20T02:07:13.833Z,84.50
2019-02-20T02:09:42.240Z,84.80
2019-02-20T02:12:10.632Z,84.60
2019-02-20T02:14:39.036Z,84.60
2019-02-20T02:17:07.419Z,84.60
2019-02-20T02:19:35.830Z,84.50
2019-02-20T02:22:04.217Z,84.50
2019-02-20T02:27:00.768Z,84.70
2019-02-20T02:31:57.317Z,84.50
2019-02-20T02:34:25.704Z,84.50
2019-02-20T02:36:54.116Z,84.70
2019-02-20T02:39:22.553Z,84.60
2019-02-20T02:41:50.952Z,84.60
2019-02-20T02:44:19.404Z,84.50
2019-02-20T02:46:47.864Z,84.40
2019-02-20T02:49:16.301Z,84.40
2019-02-20T02:51:44.698Z,84.40
2019-02-20T02:54:13.133Z,84.40
2019-02-20T03:01:37.792Z,84.60
2019-02-20T03:04:06.176Z,84.40
2019-02-20T03:06:34.628Z,84.50
2019-02-20T03:09:04.943Z,84.50
2019-02-20T03:11:33.378Z,84.80
2019-02-20T03:14:01.780Z,84.60
2019-02-20T03:16:30.226Z,84.60
2019-02-20T03:18:58.620Z,84.40
2019-02-20T03:21:27.020Z,84.50
2019-02-20T03:23:55.415Z,84.70
2019-02-20T03:26:23.822Z,84.40
2019-02-20T03:31:20.300Z,84.50
2019-02-20T03:33:48.970Z,84.50
2019-02-20T03:38:45.443Z,84.30
2019-02-20T03:41:13.875Z,84.20
2019-02-20T03:43:42.283Z,84.40
2019-02-20T03:46:10.745Z,84.40
2019-02-20T03:48:39.195Z,84.40
2019-02-20T03:53:35.761Z,84.70
2019-02-20T03:56:04.296Z,85.10
2019-02-20T03:58:33.355Z,84.90
2019-02-20T04:01:02.121Z,84.90
2019-02-20T04:03:30.636Z,84.50
2019-02-20T04:05:59.063Z,84.40
2019-02-20T04:08:27.469Z,84.50
2019-02-20T04:10:55.865Z,85.10
2019-02-20T04:15:52.363Z,85.30
2019-02-20T04:18:20.783Z,85.30
2019-02-20T04:21:08.615Z,85.30
2019-02-20T04:23:37.008Z,85.30
2019-02-20T04:26:05.598Z,85.30
2019-02-20T04:28:34.004Z,85.30
2019-02-20T04:31:02.408Z,85.30
2019-02-20T04:33:30.869Z,85.40
2019-02-20T04:35:59.362Z,85.30
2019-02-20T04:38:27.774Z,85.20
2019-02-20T04:40:56.325Z,85.20
2019-02-20T04:43:24.721Z,85.30
2019-02-20T04:48:21.199Z,84.90
2019-02-20T04:50:49.591Z,84.70
2019-02-20T04:53:17.995Z,84.80
2019-02-20T04:55:46.391Z,84.90
2019-02-20T05:00:46.484Z,84.80
2019-02-20T05:03:14.904Z,85.10
2019-02-20T05:08:11.482Z,85.20
2019-02-20T05:10:40.217Z,85.30
2019-02-20T05:13:08.637Z,85.40
2019-02-20T05:15:37.077Z,85.30
2019-02-20T05:18:05.510Z,85.10
2019-02-20T05:20:34.083Z,85.30
2019-02-20T05:23:02.519Z,85.40
2019-02-20T05:25:30.910Z,85.40
2019-02-20T05:27:59.334Z,85.50
2019-02-20T05:37:51.975Z,85.60
2019-02-20T05:40:20.407Z,85.30
2019-02-20T05:42:48.824Z,85.10
2019-02-20T05:45:17.205Z,85.10
2019-02-20T05:47:45.651Z,85.30
2019-02-20T05:50:14.040Z,85.30
2019-02-20T05:52:42.852Z,85.50
2019-02-20T05:55:11.401Z,86.00
2019-02-20T05:57:39.793Z,85.80
2019-02-20T06:05:06.561Z,85.90
2019-02-20T06:07:34.958Z,85.60
2019-02-20T06:10:03.906Z,85.30
2019-02-20T06:12:32.338Z,85.30
2019-02-20T06:15:00.781Z,85.60
2019-02-20T06:17:29.212Z,85.30
2019-02-20T06:19:57.654Z,85.20
2019-02-20T06:22:26.039Z,85.10
2019-02-20T06:24:54.480Z,85.30
2019-02-20T06:27:22.932Z,85.40
2019-02-20T06:32:19.410Z,85.30
2019-02-20T06:34:47.822Z,85.40
2019-02-20T06:37:16.217Z,85.40
2019-02-20T06:39:44.620Z,85.20
2019-02-20T06:42:13.063Z,85.30
2019-02-20T06:44:41.570Z,85.30
2019-02-20T06:49:39.968Z,85.40
2019-02-20T06:54:36.520Z,85.30
2019-02-20T06:57:04.909Z,85.20
2019-02-20T06:59:33.352Z,85.20
2019-02-20T07:04:29.836Z,84.90
2019-02-20T07:09:54.970Z,84.70
2019-02-20T07:12:28.989Z,84.50
2019-02-20T07:15:06.035Z,84.50
2019-02-20T07:17:46.266Z,84.50
2019-02-20T07:20:38.692Z,84.60
2019-02-20T07:23:22.380Z,84.40
2019-02-20T07:26:10.576Z,84.40
2019-02-20T07:28:59.920Z,84.00
2019-02-20T07:31:28.320Z,84.00
2019-02-20T07:33:56.712Z,83.90
2019-02-20T07:36:25.195Z,83.80
2019-02-20T07:41:21.663Z,83.10
2019-02-20T07:43:50.061Z,82.90
2019-02-20T07:46:18.549Z,82.60
2019-02-20T07:48:46.941Z,82.10
2019-02-20T07:51:15.411Z,81.60
2019-02-20T07:56:11.880Z,81.80
2019-02-20T07:58:40.280Z,81.90
2019-02-20T08:01:08.688Z,82.40
2019-02-20T08:03:37.108Z,81.90
2019-02-20T08:06:05.502Z,81.80
2019-02-20T08:08:33.947Z,81.30
2019-02-20T08:11:02.399Z,81.50
2019-02-20T08:13:39.152Z,81.20
2019-02-20T08:16:00.974Z,81.40
2019-02-20T08:18:29.374Z,81.20
2019-02-20T08:20:57.814Z,81.00
2019-02-20T08:23:26.209Z,80.90
2019-02-20T08:25:54.652Z,80.30
2019-02-20T08:28:23.043Z,80.10
2019-02-20T08:30:51.450Z,79.50
2019-02-20T08:33:19.877Z,79.40
2019-02-20T08:35:48.316Z,79.40
2019-02-20T08:38:16.720Z,79.90
2019-02-20T08:40:45.120Z,79.60
2019-02-20T08:43:13.536Z,79.10
2019-02-20T08:45:42.004Z,78.70
2019-02-20T08:48:10.446Z,78.10
2019-02-20T08:53:06.984Z,77.70
2019-02-20T08:58:03.457Z,77.30
2019-02-20T09:00:32.020Z,76.70
2019-02-20T09:03:00.432Z,76.80
2019-02-20T09:05:28.870Z,76.30
2019-02-20T09:07:57.274Z,76.60
2019-02-20T09:10:25.677Z,76.30
2019-02-20T09:12:54.264Z,76.20
2019-02-20T09:15:22.698Z,76.10
2019-02-20T09:17:51.103Z,75.90
2019-02-20T09:20:19.534Z,75.50
2019-02-20T09:22:47.976Z,75.30
2019-02-20T09:27:46.373Z,76.10
2019-02-20T09:30:15.850Z,76.20
2019-02-20T09:32:44.249Z,75.80
2019-02-20T09:35:13.131Z,75.90
2019-02-20T09:37:41.532Z,76.30
2019-02-20T09:42:40.055Z,76.30
2019-02-20T09:45:09.519Z,76.70
2019-02-20T09:47:37.934Z,76.80
2019-02-20T09:50:08.273Z,76.70
2019-02-20T09:52:36.734Z,76.50
2019-02-20T09:55:08.112Z,76.70
2019-02-20T09:57:36.505Z,76.50
2019-02-20T10:00:08.027Z,76.50
2019-02-20T10:02:36.424Z,76.50
2019-02-20T10:05:06.572Z,76.10
2019-02-20T10:07:34.978Z,76.00
2019-02-20T10:10:03.876Z,76.10
2019-02-20T10:12:32.317Z,75.70
2019-02-20T10:15:00.774Z,75.40
2019-02-20T10:17:29.169Z,75.30
2019-02-20T10:19:57.599Z,75.60
2019-02-20T10:22:26.069Z,76.00
2019-02-20T10:24:54.480Z,75.20
2019-02-20T10:27:22.939Z,74.70
2019-02-20T10:29:51.344Z,74.50
2019-02-20T10:32:19.750Z,74.10
2019-02-20T10:34:48.199Z,73.40
2019-02-20T10:37:16.681Z,72.60
2019-02-20T10:39:45.103Z,71.60
2019-02-20T10:44:41.627Z,71.50
2019-02-20T10:49:38.152Z,71.30
2019-02-20T10:52:06.570Z,70.80
2019-02-20T10:54:34.988Z,70.60
2019-02-20T10:57:03.402Z,71.30
2019-02-20T10:59:31.854Z,71.50
2019-02-20T11:02:00.296Z,70.90
2019-02-20T11:04:28.748Z,69.80
2019-02-20T11:06:57.211Z,69.20
2019-02-20T11:09:25.628Z,68.70
2019-02-20T11:11:54.504Z,68.70
2019-02-20T11:14:23.232Z,69.70
2019-02-20T11:16:51.636Z,69.70
2019-02-20T11:19:20.048Z,69.20
2019-02-20T11:21:48.472Z,69.10
2019-02-20T11:24:17.934Z,68.90
2019-02-20T11:26:54.760Z,69.20
2019-02-20T11:29:16.749Z,69.90
2019-02-20T11:31:45.150Z,70.30
2019-02-20T11:34:13.552Z,71.20
2019-02-20T11:36:41.968Z,71.00
2019-02-20T11:39:11.699Z,71.30
2019-02-20T11:41:40.389Z,71.60
2019-02-20T11:44:08.796Z,71.60
2019-02-20T11:46:37.204Z,71.40
2019-02-20T11:51:33.779Z,71.90
2019-02-20T11:56:30.246Z,71.20
2019-02-20T11:58:58.645Z,71.50
2019-02-20T12:01:27.059Z,71.70
2019-02-20T12:03:55.458Z,71.60
2019-02-20T12:06:23.916Z,71.50
2019-02-20T12:08:52.321Z,71.50
2019-02-20T12:11:20.753Z,71.60
2019-02-20T12:13:49.196Z,71.90
2019-02-20T12:16:17.605Z,71.80
2019-02-20T12:18:46.008Z,71.90
2019-02-20T12:21:14.494Z,71.90
2019-02-20T12:23:42.903Z,72.30
2019-02-20T12:26:11.359Z,72.70
2019-02-20T12:28:39.767Z,73.20
2019-02-20T12:33:36.542Z,73.30
2019-02-20T12:36:05.013Z,73.40
2019-02-20T12:38:33.420Z,73.80
2019-02-20T12:41:01.828Z,73.70
2019-02-20T12:43:30.235Z,73.80
2019-02-20T12:45:58.639Z,73.30
2019-02-20T12:48:27.212Z,73.10
2019-02-20T12:50:55.603Z,73.30
2019-02-20T12:53:24.056Z,73.40
2019-02-20T12:55:52.457Z,73.20
2019-02-20T13:00:48.941Z,72.90
2019-02-20T13:03:17.360Z,73.00
2019-02-20T13:05:45.802Z,72.70
2019-02-20T13:08:14.311Z,72.80
2019-02-20T13:10:42.926Z,72.70
2019-02-20T13:13:11.342Z,72.70
2019-02-20T13:15:39.736Z,72.70
2019-02-20T13:18:08.212Z,72.70
2019-02-20T13:20:36.664Z,73.00
2019-02-20T13:23:05.074Z,72.70
2019-02-20T13:25:33.574Z,71.90
2019-02-20T13:28:01.984Z,71.70
2019-02-20T13:30:30.484Z,72.30
2019-02-20T13:35:27.031Z,72.10
2019-02-20T13:37:55.437Z,72.40
2019-02-20T13:40:23.836Z,72.40
2019-02-20T13:42:52.380Z,72.40
2019-02-20T13:47:48.954Z,72.90
2019-02-20T13:52:52.000Z,73.30
2019-02-20T13:55:15.937Z,74.30
2019-02-20T13:57:44.353Z,75.10
2019-02-20T14:00:13.548Z,75.10
2019-02-20T14:02:42.120Z,76.00
2019-02-20T14:05:10.603Z,76.10
2019-02-20T14:07:39.638Z,76.80
2019-02-20T14:10:12.551Z,76.70
2019-02-20T14:12:41.034Z,76.80
2019-02-20T14:15:11.582Z,77.10
2019-02-20T14:17:40.072Z,77.20
2019-02-20T14:20:10.612Z,77.20
2019-02-20T14:22:39.801Z,77.40
2019-02-20T14:25:10.040Z,77.30
2019-02-20T14:27:38.552Z,77.20
2019-02-20T14:30:11.717Z,77.50
2019-02-20T14:32:40.251Z,77.30
2019-02-20T14:35:10.934Z,77.00
2019-02-20T14:40:09.388Z,76.80
2019-02-20T14:45:12.153Z,76.50
2019-02-20T14:50:10.583Z,77.40
2019-02-20T14:52:39.593Z,77.60
2019-02-20T14:55:11.240Z,78.10
2019-02-20T14:57:39.683Z,78.40
2019-02-20T15:00:13.256Z,78.50
2019-02-20T15:02:41.659Z,78.40
2019-02-20T15:05:11.997Z,77.80
2019-02-20T15:07:40.260Z,77.60
2019-02-20T15:10:09.863Z,77.60
2019-02-20T15:12:38.328Z,77.30
2019-02-20T15:15:10.837Z,77.40
2019-02-20T15:17:39.515Z,77.50
2019-02-20T15:20:11.100Z,77.50
2019-02-20T15:22:39.975Z,77.30
2019-02-20T15:25:09.965Z,77.50
2019-02-20T15:27:38.435Z,77.50
2019-02-20T15:30:10.181Z,77.50
2019-02-20T15:32:38.584Z,77.60
2019-02-20T15:35:07.811Z,77.60
2019-02-20T15:37:36.406Z,77.60
2019-02-20T15:40:07.129Z,77.70
2019-02-20T15:45:04.573Z,77.60
2019-02-20T15:47:32.968Z,77.60
2019-02-20T15:50:01.376Z,77.70
2019-02-20T15:52:30.356Z,77.60
2019-02-20T15:54:58.764Z,77.70
2019-02-20T15:57:27.207Z,77.70
2019-02-20T15:59:55.696Z,77.80
2019-02-20T16:02:24.209Z,78.00
2019-02-20T16:04:52.668Z,78.10
2019-02-20T16:07:21.063Z,78.10
2019-02-20T16:09:50.093Z,78.20
2019-02-20T16:12:18.598Z,78.20
2019-02-20T16:14:47.026Z,78.20
2019-02-20T16:19:43.533Z,78.30
2019-02-20T16:22:12.048Z,78.30
2019-02-20T16:24:40.562Z,78.30
2019-02-20T16:27:09.343Z,78.40
2019-02-20T16:29:37.736Z,78.50
2019-02-20T16:32:06.141Z,78.50
2019-02-20T16:34:34.620Z,78.60
2019-02-20T16:39:31.184Z,78.60
2019-02-20T16:41:59.663Z,78.50
2019-02-20T16:44:28.437Z,78.60
2019-02-20T16:46:56.851Z,78.60
2019-02-20T16:49:25.244Z,78.80
2019-02-20T16:51:53.660Z,78.90
2019-02-20T16:54:22.096Z,79.00
2019-02-20T16:56:50.544Z,79.10
2019-02-20T16:59:18.939Z,79.10
2019-02-20T17:01:47.624Z,79.20
2019-02-20T17:04:16.035Z,79.40
2019-02-20T17:06:44.444Z,79.50
2019-02-20T17:09:12.964Z,79.60
2019-02-20T17:11:42.326Z,79.60
2019-02-20T17:14:10.730Z,79.70
2019-02-20T17:16:39.581Z,79.80
2019-02-20T17:19:08.020Z,79.70
2019-02-20T17:21:36.427Z,79.70
2019-02-20T17:24:04.933Z,79.80
2019-02-20T17:26:33.451Z,79.80
2019-02-20T17:29:01.958Z,79.80
2019-02-20T17:33:58.880Z,79.80
2019-02-20T17:36:27.323Z,79.80
2019-02-20T17:38:55.750Z,80.00
2019-02-20T17:41:24.219Z,80.20
2019-02-20T17:43:52.742Z,80.10
2019-02-20T17:46:21.377Z,80.10
2019-02-20T17:48:49.775Z,80.40
2019-02-20T17:51:18.168Z,80.10
2019-02-20T17:53:46.571Z,80.00
2019-02-20T17:56:14.968Z,80.90
2019-02-20T17:58:43.405Z,80.60
2019-02-20T18:01:13.773Z,80.80
2019-02-20T18:03:43.936Z,80.80
2019-02-20T18:06:12.344Z,80.80
2019-02-20T18:11:08.829Z,81.10
2019-02-20T18:13:37.235Z,81.00
2019-02-20T18:16:05.633Z,81.10
2019-02-20T18:18:34.048Z,81.10
2019-02-20T18:21:02.446Z,81.10
2019-02-20T18:23:30.854Z,81.30
2019-02-20T18:25:59.250Z,81.20
2019-02-20T18:28:27.656Z,81.10
2019-02-20T18:30:56.049Z,81.10
2019-02-20T18:33:24.467Z,81.10
2019-02-20T18:35:52.863Z,81.10
2019-02-20T18:38:21.266Z,81.10
2019-02-20T18:43:17.742Z,80.60
2019-02-20T18:45:46.246Z,80.80
2019-02-20T18:48:14.699Z,81.20
2019-02-20T18:50:43.120Z,81.20
2019-02-20T18:53:11.515Z,81.10
2019-02-20T18:58:07.997Z,81.20
2019-02-20T19:00:36.411Z,81.20
2019-02-20T19:03:05.235Z,81.30
2019-02-20T19:08:05.564Z,81.50
2019-02-20T19:10:37.028Z,81.30
2019-02-20T19:13:23.419Z,81.40
2019-02-20T19:16:10.080Z,81.20
2019-02-20T19:19:02.903Z,81.20
2019-02-20T19:21:40.068Z,81.00
2019-02-20T19:24:29.617Z,81.10
2019-02-20T19:27:19.843Z,81.00
2019-02-20T19:30:18.044Z,81.10
2019-02-20T19:35:45.772Z,81.30
2019-02-20T19:38:17.298Z,81.40
2019-02-20T19:40:57.424Z,81.40
2019-02-20T19:46:45.193Z,81.30
2019-02-20T19:49:34.731Z,81.10
2019-02-20T19:52:39.108Z,81.40
2019-02-20T19:55:13.135Z,81.40
2019-02-20T19:57:59.800Z,81.50
2019-02-20T20:03:30.504Z,81.90
2019-02-20T20:06:01.989Z,82.30
2019-02-20T20:08:42.648Z,82.10
2019-02-20T20:11:44.207Z,82.30
2019-02-20T20:14:09.560Z,82.40
2019-02-20T20:16:59.291Z,82.40
2019-02-20T20:19:48.846Z,82.50
2019-02-20T20:22:46.035Z,82.40
2019-02-20T20:25:29.210Z,82.40
2019-02-20T20:28:08.378Z,82.60
2019-02-20T20:30:58.174Z,82.60
2019-02-20T20:33:54.965Z,82.60
2019-02-20T20:36:35.409Z,82.60
2019-02-20T20:41:58.845Z,82.80
2019-02-20T20:47:11.524Z,82.80
2019-02-20T20:49:58.294Z,82.60
2019-02-20T20:52:35.778Z,82.40
2019-02-20T20:55:39.161Z,82.40
2019-02-20T20:58:35.930Z,82.30
2019-02-20T21:01:10.327Z,82.10
2019-02-20T21:03:56.148Z,82.00
2019-02-20T21:07:06.533Z,82.30
2019-02-20T21:09:55.503Z,82.60
2019-02-20T21:12:27.035Z,82.90
2019-02-20T21:15:04.112Z,83.00
2019-02-20T21:17:41.068Z,83.20
2019-02-20T21:20:34.864Z,83.30
2019-02-20T21:23:12.314Z,83.20
2019-02-20T21:26:16.885Z,83.30
2019-02-20T21:28:48.360Z,83.30
2019-02-20T21:31:22.820Z,83.20
2019-02-20T21:34:19.798Z,83.20
2019-02-20T21:36:56.733Z,83.10
2019-02-20T21:39:31.278Z,83.00
2019-02-20T21:42:08.308Z,83.00
2019-02-20T21:45:00.767Z,83.10
2019-02-20T21:47:44.289Z,83.30
2019-02-20T21:50:18.272Z,83.50
2019-02-20T21:52:49.762Z,83.70
2019-02-20T21:55:37.714Z,84.20
2019-02-20T21:58:23.590Z,84.10
2019-02-20T22:03:42.442Z,84.00
2019-02-20T22:06:29.079Z,84.00
2019-02-20T22:09:00.594Z,84.20
2019-02-20T22:11:51.215Z,84.10
2019-02-20T22:14:31.452Z,84.00
2019-02-20T22:17:28.540Z,84.30
2019-02-20T22:22:41.690Z,84.20
2019-02-20T22:25:33.959Z,84.00
2019-02-20T22:28:23.769Z,84.20
2019-02-20T22:31:04.364Z,84.00
2019-02-20T22:33:47.936Z,84.20
2019-02-20T22:39:09.495Z,84.20
2019-02-20T22:42:06.696Z,84.30
2019-02-20T22:44:38.180Z,84.40
2019-02-20T22:50:00.357Z,84.30
2019-02-20T22:52:34.431Z,84.00
2019-02-20T22:57:47.037Z,84.30
2019-02-20T23:00:42.870Z,84.10
2019-02-20T23:03:32.157Z,84.20
2019-02-20T23:06:27.843Z,84.20
2019-02-20T23:09:14.537Z,84.30
2019-02-20T23:12:02.885Z,84.50
2019-02-20T23:19:29.015Z,84.80
2019-02-20T23:21:57.404Z,85.20
2019-02-20T23:24:25.808Z,84.70
2019-02-20T23:26:54.238Z,84.60
2019-02-20T23:31:50.803Z,84.60
2019-02-20T23:36:47.300Z,84.70
2019-02-20T23:39:15.705Z,84.60
2019-02-20T23:44:12.185Z,84.60
2019-02-20T23:46:59.920Z,84.70
2019-02-20T23:49:28.324Z,84.60
2019-02-20T23:54:25.065Z,84.70
2019-02-20T23:56:53.605Z,84.80
2019-02-20T23:59:22.020Z,85.10
